createdAt,value
2022-11-18T00:00:01.499Z,947.09
2022-11-18T00:01:01.461Z,947.08
2022-11-18T00:02:01.544Z,947.04
2022-11-18T00:03:01.367Z,947.04
2022-11-18T00:04:01.336Z,947.06
2022-11-18T00:05:01.289Z,947.07
2022-11-18T00:06:01.227Z,947.17
2022-11-18T00:07:01.258Z,947.14
2022-11-18T00:08:01.137Z,947.13
2022-11-18T00:09:01.097Z,947.15
2022-11-18T00:10:01.105Z,947.20
2022-11-18T00:11:01.007Z,947.25
2022-11-18T00:12:00.957Z,947.23
2022-11-18T00:13:00.915Z,947.22
2022-11-18T00:14:00.868Z,947.25
2022-11-18T00:15:00.826Z,947.32
2022-11-18T00:16:00.877Z,947.36
2022-11-18T00:17:00.731Z,947.37
2022-11-18T00:18:00.681Z,947.41
2022-11-18T00:19:00.643Z,947.44
2022-11-18T00:20:00.598Z,947.45
2022-11-18T00:21:00.554Z,947.49
2022-11-18T00:22:00.524Z,947.46
2022-11-18T00:23:00.464Z,947.46
2022-11-18T00:24:00.413Z,947.51
2022-11-18T00:25:00.372Z,947.55
2022-11-18T00:26:00.317Z,947.51
2022-11-18T00:27:00.277Z,947.54
2022-11-18T00:28:00.260Z,947.52
2022-11-18T00:29:00.187Z,947.61
2022-11-18T00:30:00.170Z,947.62
2022-11-18T00:31:00.100Z,947.66
2022-11-18T00:32:00.048Z,947.68
2022-11-18T00:33:00.005Z,947.74
2022-11-18T00:33:59.964Z,947.78
2022-11-18T00:34:59.916Z,947.82
2022-11-18T00:35:59.862Z,947.88
2022-11-18T00:36:59.820Z,947.91
2022-11-18T00:37:59.771Z,947.81
2022-11-18T00:38:59.729Z,947.75
2022-11-18T00:39:59.693Z,947.83
2022-11-18T00:40:59.636Z,947.74
2022-11-18T00:41:59.585Z,947.70
2022-11-18T00:42:59.553Z,947.67
2022-11-18T00:44:00.430Z,947.62
2022-11-18T00:44:59.455Z,947.65
2022-11-18T00:45:59.425Z,947.65
2022-11-18T00:46:59.365Z,947.69
2022-11-18T00:47:59.312Z,947.72
2022-11-18T00:48:59.271Z,947.76
2022-11-18T00:49:59.219Z,947.79
2022-11-18T00:50:59.178Z,947.82
2022-11-18T00:51:59.162Z,947.85
2022-11-18T00:52:59.082Z,947.88
2022-11-18T00:53:59.038Z,947.84
2022-11-18T00:54:58.989Z,947.83
2022-11-18T00:55:58.948Z,947.81
2022-11-18T00:56:58.898Z,947.80
2022-11-18T00:57:58.896Z,947.74
2022-11-18T00:58:58.801Z,947.78
2022-11-18T00:59:58.764Z,947.83
2022-11-18T01:00:58.736Z,947.82
2022-11-18T01:01:58.673Z,947.83
2022-11-18T01:02:58.622Z,947.80
2022-11-18T01:03:58.601Z,947.80
2022-11-18T01:04:58.530Z,947.81
2022-11-18T01:05:58.491Z,947.86
2022-11-18T01:06:58.494Z,947.82
2022-11-18T01:07:58.400Z,947.86
2022-11-18T01:08:58.348Z,947.91
2022-11-18T01:09:58.519Z,947.95
2022-11-18T01:10:58.251Z,947.98
2022-11-18T01:11:58.222Z,947.98
2022-11-18T01:12:58.163Z,948.00
2022-11-18T01:13:58.122Z,947.99
2022-11-18T01:14:58.073Z,948.06
2022-11-18T01:15:58.159Z,948.07
2022-11-18T01:16:57.984Z,948.07
2022-11-18T01:17:57.940Z,948.13
2022-11-18T01:18:57.895Z,948.08
2022-11-18T01:19:57.849Z,948.10
2022-11-18T01:20:57.799Z,948.09
2022-11-18T01:21:57.779Z,948.05
2022-11-18T01:22:57.704Z,948.06
2022-11-18T01:23:57.666Z,948.04
2022-11-18T01:24:57.619Z,947.98
2022-11-18T01:25:57.577Z,948.02
2022-11-18T01:26:57.521Z,948.02
2022-11-18T01:27:57.506Z,948.09
2022-11-18T01:28:57.434Z,948.11
2022-11-18T01:29:57.392Z,948.15
2022-11-18T01:30:57.339Z,948.14
2022-11-18T01:32:23.971Z,948.16
2022-11-18T01:32:57.249Z,948.23
2022-11-18T01:33:57.236Z,948.22
2022-11-18T01:34:57.160Z,948.26
2022-11-18T01:35:57.119Z,948.20
2022-11-18T01:36:57.072Z,948.26
2022-11-18T01:37:57.028Z,948.24
2022-11-18T01:38:56.983Z,948.19
2022-11-18T01:39:56.959Z,948.20
2022-11-18T01:40:56.884Z,948.25
2022-11-18T01:41:56.849Z,948.25
2022-11-18T01:42:56.800Z,948.30
2022-11-18T01:43:56.754Z,948.33
2022-11-18T01:44:56.704Z,948.34
2022-11-18T01:45:56.675Z,948.38
2022-11-18T01:46:56.609Z,948.42
2022-11-18T01:47:56.570Z,948.45
2022-11-18T01:48:56.522Z,948.42
2022-11-18T01:49:56.483Z,948.42
2022-11-18T01:50:56.429Z,948.47
2022-11-18T01:51:56.411Z,948.46
2022-11-18T01:52:56.338Z,948.46
2022-11-18T01:53:56.297Z,948.48
2022-11-18T01:54:56.246Z,948.43
2022-11-18T01:55:56.213Z,948.38
2022-11-18T01:56:56.154Z,948.41
2022-11-18T01:57:56.533Z,948.47
2022-11-18T01:58:56.064Z,948.54
2022-11-18T01:59:56.023Z,948.53
2022-11-18T02:00:56.022Z,948.53
2022-11-18T02:01:59.656Z,948.54
2022-11-18T02:02:55.877Z,948.56
2022-11-18T02:03:55.864Z,948.61
2022-11-18T02:04:55.786Z,948.62
2022-11-18T02:05:55.745Z,948.60
2022-11-18T02:06:55.762Z,948.66
2022-11-18T02:07:55.653Z,948.67
2022-11-18T02:08:55.603Z,948.64
2022-11-18T02:09:55.580Z,948.67
2022-11-18T02:10:55.508Z,948.74
2022-11-18T02:11:55.550Z,948.78
2022-11-18T02:12:55.422Z,948.73
2022-11-18T02:13:55.379Z,948.72
2022-11-18T02:14:55.325Z,948.75
2022-11-18T02:15:55.308Z,948.71
2022-11-18T02:16:55.234Z,948.69
2022-11-18T02:17:55.199Z,948.76
2022-11-18T02:18:55.154Z,948.70
2022-11-18T02:19:55.109Z,948.78
2022-11-18T02:20:55.053Z,948.82
2022-11-18T02:21:55.037Z,948.72
2022-11-18T02:22:54.962Z,948.75
2022-11-18T02:23:54.923Z,948.75
2022-11-18T02:24:54.868Z,948.75
2022-11-18T02:25:54.836Z,948.71
2022-11-18T02:26:54.783Z,948.70
2022-11-18T02:27:54.918Z,948.74
2022-11-18T02:28:54.685Z,948.72
2022-11-18T02:29:54.650Z,948.67
2022-11-18T02:30:54.591Z,948.78
2022-11-18T02:31:54.551Z,948.77
2022-11-18T02:32:54.502Z,948.66
2022-11-18T02:33:54.540Z,948.70
2022-11-18T02:34:54.406Z,948.63
2022-11-18T02:35:54.394Z,948.66
2022-11-18T02:36:54.320Z,948.65
2022-11-18T02:37:54.277Z,948.57
2022-11-18T02:38:54.224Z,948.60
2022-11-18T02:39:54.189Z,948.59
2022-11-18T02:40:54.143Z,948.66
2022-11-18T02:41:54.093Z,948.65
2022-11-18T02:42:54.039Z,948.64
2022-11-18T02:43:54.003Z,948.66
2022-11-18T02:44:53.949Z,948.68
2022-11-18T02:45:53.910Z,948.68
2022-11-18T02:46:53.872Z,948.67
2022-11-18T02:47:53.820Z,948.70
2022-11-18T02:48:53.766Z,948.67
2022-11-18T02:49:53.725Z,948.68
2022-11-18T02:50:53.668Z,948.70
2022-11-18T02:51:53.634Z,948.72
2022-11-18T02:52:53.593Z,948.71
2022-11-18T02:53:53.539Z,948.66
2022-11-18T02:54:53.491Z,948.69
2022-11-18T02:55:53.448Z,948.72
2022-11-18T02:56:53.395Z,948.71
2022-11-18T02:57:53.355Z,948.76
2022-11-18T02:58:53.331Z,948.76
2022-11-18T02:59:53.265Z,948.76
2022-11-18T03:00:53.230Z,948.78
2022-11-18T03:01:53.276Z,948.81
2022-11-18T03:02:53.120Z,948.78
2022-11-18T03:03:53.085Z,948.83
2022-11-18T03:04:53.044Z,948.84
2022-11-18T03:05:52.988Z,948.87
2022-11-18T03:06:52.995Z,948.83
2022-11-18T03:07:52.900Z,948.85
2022-11-18T03:08:52.873Z,948.85
2022-11-18T03:09:52.813Z,948.88
2022-11-18T03:10:52.757Z,948.87
2022-11-18T03:11:52.720Z,948.91
2022-11-18T03:12:52.666Z,948.90
2022-11-18T03:13:52.623Z,948.91
2022-11-18T03:14:52.588Z,948.96
2022-11-18T03:15:52.531Z,948.98
2022-11-18T03:16:52.479Z,948.97
2022-11-18T03:17:52.444Z,948.99
2022-11-18T03:18:52.394Z,948.95
2022-11-18T03:19:52.351Z,948.96
2022-11-18T03:20:52.317Z,948.98
2022-11-18T03:21:52.261Z,949.05
2022-11-18T03:22:52.207Z,949.07
2022-11-18T03:23:52.167Z,949.00
2022-11-18T03:24:52.113Z,949.03
2022-11-18T03:25:52.074Z,949.13
2022-11-18T03:26:52.067Z,949.11
2022-11-18T03:27:51.983Z,949.22
2022-11-18T03:28:51.929Z,949.20
2022-11-18T03:29:51.894Z,949.09
2022-11-18T03:30:51.838Z,949.13
2022-11-18T03:31:51.806Z,949.14
2022-11-18T03:32:51.772Z,949.18
2022-11-18T03:33:51.710Z,949.13
2022-11-18T03:34:51.656Z,949.15
2022-11-18T03:35:51.617Z,949.16
2022-11-18T03:36:52.090Z,949.13
2022-11-18T03:37:51.526Z,949.10
2022-11-18T03:38:51.495Z,949.13
2022-11-18T03:39:51.430Z,949.12
2022-11-18T03:40:51.376Z,949.15
2022-11-18T03:41:51.337Z,949.11
2022-11-18T03:42:51.285Z,949.13
2022-11-18T03:43:51.247Z,949.16
2022-11-18T03:44:52.516Z,949.16
2022-11-18T03:45:51.153Z,949.15
2022-11-18T03:46:51.105Z,949.21
2022-11-18T03:47:51.065Z,949.18
2022-11-18T03:48:51.007Z,949.24
2022-11-18T03:49:50.972Z,949.23
2022-11-18T03:50:50.932Z,949.21
2022-11-18T03:51:50.883Z,949.32
2022-11-18T03:52:50.830Z,949.31
2022-11-18T03:53:50.789Z,949.36
2022-11-18T03:54:50.734Z,949.46
2022-11-18T03:55:50.696Z,949.44
2022-11-18T03:56:50.931Z,949.46
2022-11-18T03:57:50.602Z,949.48
2022-11-18T03:58:50.548Z,949.47
2022-11-18T03:59:50.511Z,949.45
2022-11-18T04:00:50.458Z,949.47
2022-11-18T04:01:50.516Z,949.52
2022-11-18T04:02:50.383Z,949.58
2022-11-18T04:03:50.327Z,949.57
2022-11-18T04:04:50.275Z,949.61
2022-11-18T04:05:50.236Z,949.63
2022-11-18T04:06:50.185Z,949.59
2022-11-18T04:07:50.150Z,949.65
2022-11-18T04:08:50.106Z,949.67
2022-11-18T04:09:50.055Z,949.62
2022-11-18T04:10:49.998Z,949.63
2022-11-18T04:11:49.958Z,949.65
2022-11-18T04:12:49.908Z,949.61
2022-11-18T04:13:49.870Z,949.65
2022-11-18T04:14:49.841Z,949.68
2022-11-18T04:15:49.780Z,949.70
2022-11-18T04:16:49.725Z,949.66
2022-11-18T04:17:49.684Z,949.62
2022-11-18T04:18:49.632Z,949.70
2022-11-18T04:19:49.594Z,949.72
2022-11-18T04:20:49.566Z,949.75
2022-11-18T04:21:49.500Z,949.69
2022-11-18T04:22:49.449Z,949.76
2022-11-18T04:23:49.407Z,949.78
2022-11-18T04:24:49.355Z,949.70
2022-11-18T04:25:49.316Z,949.74
2022-11-18T04:26:49.293Z,949.74
2022-11-18T04:27:49.226Z,949.72
2022-11-18T04:28:49.171Z,949.72
2022-11-18T04:29:49.130Z,949.71
2022-11-18T04:30:49.082Z,949.69
2022-11-18T04:31:49.041Z,949.67
2022-11-18T04:32:49.012Z,949.76
2022-11-18T04:33:48.947Z,949.71
2022-11-18T04:34:48.892Z,949.71
2022-11-18T04:35:48.853Z,949.74
2022-11-18T04:36:48.805Z,949.79
2022-11-18T04:37:48.769Z,949.76
2022-11-18T04:38:48.896Z,949.80
2022-11-18T04:39:48.672Z,949.76
2022-11-18T04:40:48.618Z,949.81
2022-11-18T04:41:48.579Z,949.75
2022-11-18T04:42:48.527Z,949.79
2022-11-18T04:43:48.487Z,949.80
2022-11-18T04:44:48.478Z,949.79
2022-11-18T04:45:48.403Z,949.78
2022-11-18T04:46:48.341Z,949.82
2022-11-18T04:47:48.303Z,949.81
2022-11-18T04:48:48.247Z,949.80
2022-11-18T04:49:48.222Z,949.78
2022-11-18T04:50:48.184Z,949.75
2022-11-18T04:51:48.119Z,949.77
2022-11-18T04:52:48.067Z,949.76
2022-11-18T04:53:48.026Z,949.76
2022-11-18T04:54:47.975Z,949.80
2022-11-18T04:55:47.931Z,949.82
2022-11-18T04:56:49.596Z,949.84
2022-11-18T04:57:47.841Z,949.89
2022-11-18T04:58:47.785Z,949.85
2022-11-18T04:59:47.749Z,949.89
2022-11-18T05:00:47.702Z,949.91
2022-11-18T05:01:47.718Z,949.94
2022-11-18T05:02:47.618Z,949.95
2022-11-18T05:03:50.523Z,949.99
2022-11-18T05:04:47.515Z,949.97
2022-11-18T05:05:47.478Z,949.97
2022-11-18T05:06:47.422Z,949.90
2022-11-18T05:07:47.456Z,949.99
2022-11-18T05:08:47.362Z,949.98
2022-11-18T05:09:47.287Z,950.00
2022-11-18T05:10:47.249Z,950.05
2022-11-18T05:11:47.195Z,950.01
2022-11-18T05:12:47.152Z,950.04
2022-11-18T05:13:47.099Z,950.09
2022-11-18T05:14:50.603Z,950.09
2022-11-18T05:15:47.010Z,950.19
2022-11-18T05:16:46.965Z,950.12
2022-11-18T05:17:46.918Z,950.20
2022-11-18T05:18:46.875Z,950.23
2022-11-18T05:19:46.824Z,950.25
2022-11-18T05:20:46.812Z,950.23
2022-11-18T05:21:46.732Z,950.19
2022-11-18T05:22:46.688Z,950.23
2022-11-18T05:23:46.634Z,950.21
2022-11-18T05:24:46.604Z,950.23
2022-11-18T05:25:46.547Z,950.25
2022-11-18T05:26:46.522Z,950.27
2022-11-18T05:27:46.455Z,950.33
2022-11-18T05:28:46.411Z,950.38
2022-11-18T05:29:46.363Z,950.37
2022-11-18T05:30:46.320Z,950.47
2022-11-18T05:31:46.269Z,950.51
2022-11-18T05:32:46.284Z,950.58
2022-11-18T05:33:46.179Z,950.56
2022-11-18T05:34:46.140Z,950.59
2022-11-18T05:35:48.931Z,950.58
2022-11-18T05:36:46.045Z,950.67
2022-11-18T05:37:45.988Z,950.63
2022-11-18T05:38:45.968Z,950.72
2022-11-18T05:39:45.896Z,950.70
2022-11-18T05:40:45.860Z,950.81
2022-11-18T05:41:45.807Z,950.66
2022-11-18T05:42:45.771Z,950.65
2022-11-18T05:43:45.712Z,950.59
2022-11-18T05:44:45.688Z,950.64
2022-11-18T05:45:45.620Z,950.57
2022-11-18T05:46:45.586Z,950.58
2022-11-18T05:47:45.527Z,950.64
2022-11-18T05:48:45.487Z,950.62
2022-11-18T05:49:45.454Z,950.63
2022-11-18T05:50:45.437Z,950.63
2022-11-18T05:51:45.341Z,950.72
2022-11-18T05:52:45.303Z,950.71
2022-11-18T05:53:45.254Z,950.68
2022-11-18T05:54:45.206Z,950.76
2022-11-18T05:55:45.157Z,950.75
2022-11-18T05:56:45.133Z,950.77
2022-11-18T05:57:45.065Z,950.80
2022-11-18T05:58:45.026Z,950.81
2022-11-18T05:59:44.982Z,950.84
2022-11-18T06:03:46.730Z,950.90
2022-11-18T06:04:46.668Z,950.92
2022-11-18T06:05:46.612Z,950.96
2022-11-18T06:06:46.567Z,950.94
2022-11-18T06:07:46.580Z,950.96
2022-11-18T06:08:46.476Z,951.06
2022-11-18T06:09:46.441Z,951.05
2022-11-18T06:10:46.379Z,950.99
2022-11-18T06:11:46.327Z,951.00
2022-11-18T06:12:46.289Z,950.97
2022-11-18T06:13:46.246Z,951.06
2022-11-18T06:14:46.192Z,951.01
2022-11-18T06:15:46.157Z,951.05
2022-11-18T06:16:46.105Z,951.07
2022-11-18T06:17:46.048Z,950.99
2022-11-18T06:18:46.007Z,951.02
2022-11-18T06:19:45.951Z,951.00
2022-11-18T06:20:45.916Z,951.09
2022-11-18T06:21:45.881Z,951.02
2022-11-18T06:22:46.832Z,951.04
2022-11-18T06:23:45.766Z,950.98
2022-11-18T06:24:45.731Z,951.12
2022-11-18T06:25:45.684Z,951.07
2022-11-18T06:26:45.635Z,951.06
2022-11-18T06:27:45.593Z,951.04
2022-11-18T06:28:45.542Z,951.09
2022-11-18T06:29:45.484Z,951.07
2022-11-18T06:30:45.448Z,951.14
2022-11-18T06:31:45.395Z,951.14
2022-11-18T06:32:45.359Z,951.19
2022-11-18T06:33:45.332Z,951.21
2022-11-18T06:34:45.282Z,951.32
2022-11-18T06:35:45.211Z,951.28
2022-11-18T06:36:45.167Z,951.20
2022-11-18T06:37:45.116Z,951.21
2022-11-18T06:38:45.078Z,951.28
2022-11-18T06:39:45.067Z,951.14
2022-11-18T06:40:44.996Z,951.28
2022-11-18T06:41:44.927Z,951.24
2022-11-18T06:42:44.892Z,951.32
2022-11-18T06:43:44.847Z,951.29
2022-11-18T06:44:44.833Z,951.27
2022-11-18T06:45:44.759Z,951.23
2022-11-18T06:46:44.714Z,951.35
2022-11-18T06:47:44.649Z,951.33
2022-11-18T06:48:44.618Z,951.39
2022-11-18T06:49:44.562Z,951.38
2022-11-18T06:50:44.521Z,951.40
2022-11-18T06:51:44.484Z,951.45
2022-11-18T06:52:44.426Z,951.43
2022-11-18T06:53:44.375Z,951.47
2022-11-18T06:54:44.333Z,951.45
2022-11-18T06:55:44.282Z,951.48
2022-11-18T06:56:44.252Z,951.47
2022-11-18T06:57:44.371Z,951.48
2022-11-18T06:58:44.150Z,951.51
2022-11-18T06:59:44.099Z,951.58
2022-11-18T07:00:44.113Z,951.56
2022-11-18T07:01:44.006Z,951.57
2022-11-18T07:02:43.969Z,951.61
2022-11-18T07:03:43.944Z,951.60
2022-11-18T07:04:43.873Z,951.69
2022-11-18T07:05:43.814Z,951.68
2022-11-18T07:06:43.779Z,951.70
2022-11-18T07:07:43.799Z,951.76
2022-11-18T07:08:43.687Z,951.75
2022-11-18T07:09:43.655Z,951.75
2022-11-18T07:10:43.595Z,951.68
2022-11-18T07:11:43.547Z,951.75
2022-11-18T07:12:43.502Z,951.77
2022-11-18T07:13:43.977Z,951.78
2022-11-18T07:14:43.409Z,951.82
2022-11-18T07:15:43.376Z,951.80
2022-11-18T07:16:43.320Z,951.86
2022-11-18T07:17:43.266Z,951.86
2022-11-18T07:18:43.228Z,951.85
2022-11-18T07:19:43.173Z,951.93
2022-11-18T07:20:43.135Z,951.96
2022-11-18T07:21:43.112Z,951.95
2022-11-18T07:22:43.043Z,951.99
2022-11-18T07:23:43.000Z,951.94
2022-11-18T07:24:42.949Z,951.97
2022-11-18T07:25:45.402Z,951.96
2022-11-18T07:26:42.860Z,951.94
2022-11-18T07:27:42.825Z,951.95
2022-11-18T07:28:42.774Z,951.98
2022-11-18T07:29:42.715Z,952.01
2022-11-18T07:30:42.678Z,952.00
2022-11-18T07:31:42.624Z,952.06
2022-11-18T07:32:42.583Z,952.06
2022-11-18T07:33:42.553Z,952.09
2022-11-18T07:34:42.489Z,952.08
2022-11-18T07:35:42.436Z,952.09
2022-11-18T07:36:42.403Z,952.06
2022-11-18T07:37:42.344Z,952.14
2022-11-18T07:38:42.306Z,952.14
2022-11-18T07:39:42.292Z,952.22
2022-11-18T07:40:42.215Z,952.11
2022-11-18T07:41:42.165Z,952.23
2022-11-18T07:42:42.118Z,952.21
2022-11-18T07:43:42.079Z,952.25
2022-11-18T07:44:42.024Z,952.29
2022-11-18T07:45:42.005Z,952.28
2022-11-18T07:46:41.935Z,952.26
2022-11-18T07:47:41.891Z,952.25
2022-11-18T07:48:41.843Z,952.22
2022-11-18T07:49:41.808Z,952.30
2022-11-18T07:50:46.843Z,952.18
2022-11-18T07:51:41.724Z,952.17
2022-11-18T07:52:41.660Z,952.26
2022-11-18T07:53:41.618Z,952.19
2022-11-18T07:54:41.567Z,952.24
2022-11-18T07:55:41.530Z,952.19
2022-11-18T07:56:41.472Z,952.22
2022-11-18T07:57:41.462Z,952.20
2022-11-18T07:58:41.383Z,952.21
2022-11-18T07:59:41.343Z,952.25
2022-11-18T08:00:41.291Z,952.20
2022-11-18T08:01:41.384Z,952.19
2022-11-18T08:02:41.200Z,952.29
2022-11-18T08:03:41.187Z,952.32
2022-11-18T08:04:41.149Z,952.32
2022-11-18T08:05:41.161Z,952.35
2022-11-18T08:06:41.016Z,952.38
2022-11-18T08:07:41.010Z,952.38
2022-11-18T08:08:40.927Z,952.45
2022-11-18T08:09:40.902Z,952.35
2022-11-18T08:10:40.830Z,952.43
2022-11-18T08:11:40.801Z,952.56
2022-11-18T08:12:40.741Z,952.48
2022-11-18T08:13:40.703Z,952.63
2022-11-18T08:14:40.653Z,952.60
2022-11-18T08:15:40.647Z,952.55
2022-11-18T08:16:40.597Z,952.60
2022-11-18T08:17:40.528Z,952.57
2022-11-18T08:18:40.480Z,952.60
2022-11-18T08:19:40.435Z,952.64
2022-11-18T08:20:40.378Z,952.58
2022-11-18T08:21:40.361Z,952.63
2022-11-18T08:22:40.285Z,952.64
2022-11-18T08:23:42.335Z,952.69
2022-11-18T08:24:40.193Z,952.64
2022-11-18T08:25:40.158Z,952.66
2022-11-18T08:26:40.104Z,952.61
2022-11-18T08:27:40.079Z,952.63
2022-11-18T08:28:40.060Z,952.70
2022-11-18T08:29:39.977Z,952.75
2022-11-18T08:30:39.925Z,952.74
2022-11-18T08:31:39.883Z,952.76
2022-11-18T08:32:39.833Z,952.75
2022-11-18T08:33:39.830Z,952.77
2022-11-18T08:34:39.741Z,952.83
2022-11-18T08:35:39.707Z,952.83
2022-11-18T08:36:39.652Z,952.85
2022-11-18T08:37:39.617Z,952.90
2022-11-18T08:38:39.562Z,952.89
2022-11-18T08:39:39.545Z,952.91
2022-11-18T08:40:39.472Z,952.86
2022-11-18T08:41:39.436Z,952.91
2022-11-18T08:42:39.414Z,952.86
2022-11-18T08:43:39.339Z,952.99
2022-11-18T08:44:39.289Z,952.99
2022-11-18T08:45:39.248Z,952.94
2022-11-18T08:46:39.196Z,952.96
2022-11-18T08:47:39.159Z,952.94
2022-11-18T08:48:39.123Z,952.99
2022-11-18T08:49:39.069Z,953.03
2022-11-18T08:50:39.020Z,953.01
2022-11-18T08:51:38.977Z,953.02
2022-11-18T08:52:38.944Z,953.03
2022-11-18T08:53:38.891Z,952.97
2022-11-18T08:54:38.836Z,953.03
2022-11-18T08:55:38.795Z,953.03
2022-11-18T08:56:38.743Z,953.08
2022-11-18T08:57:38.702Z,953.04
2022-11-18T08:58:38.674Z,952.97
2022-11-18T08:59:38.613Z,953.04
2022-11-18T09:00:38.562Z,953.02
2022-11-18T09:01:38.582Z,953.00
2022-11-18T09:02:38.470Z,953.09
2022-11-18T09:03:38.470Z,953.03
2022-11-18T09:04:38.403Z,953.02
2022-11-18T09:05:38.341Z,953.11
2022-11-18T09:06:38.316Z,953.05
2022-11-18T09:07:38.326Z,953.09
2022-11-18T09:08:38.197Z,953.03
2022-11-18T09:09:38.163Z,953.09
2022-11-18T09:10:38.148Z,953.06
2022-11-18T09:11:38.070Z,953.06
2022-11-18T09:12:38.021Z,953.17
2022-11-18T09:14:04.353Z,953.16
2022-11-18T09:15:37.890Z,953.13
2022-11-18T09:16:37.859Z,953.18
2022-11-18T09:17:37.807Z,953.13
2022-11-18T09:18:37.748Z,953.16
2022-11-18T09:19:47.084Z,953.16
2022-11-18T09:20:37.657Z,953.17
2022-11-18T09:21:40.864Z,953.16
2022-11-18T09:22:37.586Z,953.16
2022-11-18T09:23:37.526Z,953.21
2022-11-18T09:24:37.479Z,953.26
2022-11-18T09:25:37.443Z,953.20
2022-11-18T09:26:37.384Z,953.21
2022-11-18T09:27:37.350Z,953.21
2022-11-18T09:28:37.321Z,953.23
2022-11-18T09:29:37.260Z,953.21
2022-11-18T09:30:37.207Z,953.14
2022-11-18T09:31:37.171Z,953.15
2022-11-18T09:32:37.119Z,953.13
2022-11-18T09:33:37.079Z,953.18
2022-11-18T09:34:37.046Z,953.21
2022-11-18T09:35:36.988Z,953.17
2022-11-18T09:36:36.941Z,953.14
2022-11-18T09:37:36.900Z,953.19
2022-11-18T09:38:36.850Z,953.17
2022-11-18T09:39:36.810Z,953.23
2022-11-18T09:40:36.781Z,953.25
2022-11-18T09:41:36.724Z,953.24
2022-11-18T09:42:36.672Z,953.27
2022-11-18T09:43:36.628Z,953.24
2022-11-18T09:44:36.578Z,953.27
2022-11-18T09:45:36.545Z,953.25
2022-11-18T09:46:36.511Z,953.34
2022-11-18T09:47:36.467Z,953.37
2022-11-18T09:48:36.403Z,953.39
2022-11-18T09:49:36.363Z,953.39
2022-11-18T09:50:49.547Z,953.37
2022-11-18T09:51:36.276Z,953.43
2022-11-18T09:52:36.408Z,953.47
2022-11-18T09:53:36.193Z,953.45
2022-11-18T09:54:36.133Z,953.53
2022-11-18T09:55:36.097Z,953.48
2022-11-18T09:56:36.110Z,953.53
2022-11-18T09:57:36.009Z,953.49
2022-11-18T09:58:35.986Z,953.67
2022-11-18T09:59:35.921Z,953.52
2022-11-18T10:00:35.867Z,953.49
2022-11-18T10:01:35.910Z,953.58
2022-11-18T10:02:35.778Z,953.62
2022-11-18T10:03:35.737Z,953.63
2022-11-18T10:04:35.705Z,953.60
2022-11-18T10:05:35.647Z,953.66
2022-11-18T10:06:35.595Z,953.66
2022-11-18T10:07:35.637Z,953.58
2022-11-18T10:08:35.510Z,953.73
2022-11-18T10:09:35.469Z,953.53
2022-11-18T10:10:35.444Z,953.64
2022-11-18T10:11:40.236Z,953.51
2022-11-18T10:12:35.329Z,953.53
2022-11-18T10:14:48.663Z,953.61
2022-11-18T10:15:48.630Z,953.57
2022-11-18T10:16:48.561Z,953.57
2022-11-18T10:17:48.514Z,953.64
2022-11-18T10:19:03.561Z,953.59
2022-11-18T10:19:48.420Z,953.59
2022-11-18T10:20:48.401Z,953.61
2022-11-18T10:21:48.328Z,953.60
2022-11-18T10:22:48.290Z,953.62
2022-11-18T10:23:48.235Z,953.63
2022-11-18T10:24:48.201Z,953.61
2022-11-18T10:25:48.149Z,953.70
2022-11-18T10:26:48.120Z,953.65
2022-11-18T10:27:48.062Z,953.63
2022-11-18T10:28:48.007Z,953.65
2022-11-18T10:29:47.968Z,953.70
2022-11-18T10:30:47.916Z,953.78
2022-11-18T10:31:47.878Z,953.74
2022-11-18T10:32:47.845Z,953.78
2022-11-18T10:33:47.788Z,953.83
2022-11-18T10:34:47.735Z,953.85
2022-11-18T10:35:47.696Z,953.83
2022-11-18T10:36:47.649Z,954.01
2022-11-18T10:38:06.880Z,953.96
2022-11-18T10:38:50.174Z,953.85
2022-11-18T10:39:47.516Z,953.90
2022-11-18T10:40:47.471Z,953.81
2022-11-18T10:41:47.460Z,953.79
2022-11-18T10:42:47.385Z,953.95
2022-11-18T10:43:47.342Z,953.82
2022-11-18T10:44:47.291Z,953.88
2022-11-18T10:45:47.252Z,953.84
2022-11-18T10:46:47.204Z,953.85
2022-11-18T10:47:47.179Z,953.87
2022-11-18T10:48:47.112Z,953.86
2022-11-18T10:49:47.074Z,953.90
2022-11-18T10:50:51.909Z,953.89
2022-11-18T10:51:46.988Z,953.84
2022-11-18T10:52:46.936Z,953.90
2022-11-18T10:53:46.927Z,953.85
2022-11-18T10:54:46.849Z,953.86
2022-11-18T10:55:46.805Z,953.87
2022-11-18T10:56:46.764Z,953.82
2022-11-18T10:57:46.719Z,953.85
2022-11-18T10:58:46.666Z,953.94
2022-11-18T10:59:46.658Z,953.84
2022-11-18T11:00:46.577Z,953.84
2022-11-18T11:01:46.679Z,953.90
2022-11-18T11:02:46.484Z,953.82
2022-11-18T11:03:46.450Z,953.89
2022-11-18T11:04:46.400Z,953.88
2022-11-18T11:05:46.387Z,953.91
2022-11-18T11:06:46.306Z,953.89
2022-11-18T11:07:46.348Z,953.90
2022-11-18T11:08:46.217Z,953.94
2022-11-18T11:09:46.180Z,953.93
2022-11-18T11:10:51.361Z,953.90
2022-11-18T11:11:46.105Z,954.01
2022-11-18T11:12:46.041Z,953.96
2022-11-18T11:13:46.003Z,953.89
2022-11-18T11:14:45.951Z,953.95
2022-11-18T11:15:45.911Z,953.91
2022-11-18T11:16:45.865Z,953.86
2022-11-18T11:17:45.939Z,953.79
2022-11-18T11:18:45.796Z,953.95
2022-11-18T11:19:45.760Z,953.85
2022-11-18T11:20:45.681Z,953.82
2022-11-18T11:21:45.641Z,953.74
2022-11-18T11:22:45.597Z,953.81
2022-11-18T11:23:45.569Z,953.86
2022-11-18T11:24:45.506Z,953.75
2022-11-18T11:28:45.327Z,953.78
2022-11-18T11:29:45.369Z,953.76
2022-11-18T11:30:46.458Z,953.76
2022-11-18T11:31:45.190Z,953.80
2022-11-18T11:32:45.146Z,953.76
2022-11-18T11:33:45.102Z,953.79
2022-11-18T11:34:45.053Z,953.83
2022-11-18T11:35:45.038Z,953.70
2022-11-18T11:36:44.976Z,953.70
2022-11-18T11:37:44.924Z,953.73
2022-11-18T11:38:44.877Z,953.79
2022-11-18T11:39:44.842Z,953.84
2022-11-18T11:40:44.792Z,953.78
2022-11-18T11:41:44.781Z,953.91
2022-11-18T11:42:44.705Z,953.83
2022-11-18T11:43:44.656Z,953.85
2022-11-18T11:44:44.617Z,953.86
2022-11-18T11:45:44.569Z,953.80
2022-11-18T11:46:44.529Z,953.84
2022-11-18T11:47:44.495Z,953.84
2022-11-18T11:48:44.432Z,953.83
2022-11-18T11:49:44.392Z,953.81
2022-11-18T11:50:46.487Z,953.80
2022-11-18T11:51:44.300Z,953.84
2022-11-18T11:52:44.261Z,953.81
2022-11-18T11:53:44.230Z,953.89
2022-11-18T11:54:44.165Z,953.83
2022-11-18T11:55:44.147Z,953.77
2022-11-18T11:56:44.083Z,953.77
2022-11-18T11:57:44.037Z,953.85
2022-11-18T11:58:43.992Z,953.78
2022-11-18T11:59:43.947Z,953.83
2022-11-18T12:00:43.909Z,953.75
2022-11-18T12:01:43.884Z,953.69
2022-11-18T12:02:43.857Z,953.72
2022-11-18T12:03:48.685Z,953.74
2022-11-18T12:04:43.729Z,953.76
2022-11-18T12:05:43.681Z,953.75
2022-11-18T12:06:43.636Z,953.74
2022-11-18T12:07:43.682Z,953.72
2022-11-18T12:08:43.550Z,953.77
2022-11-18T12:09:43.498Z,953.84
2022-11-18T12:10:43.459Z,953.78
2022-11-18T12:11:43.419Z,953.76
2022-11-18T12:12:43.367Z,953.82
2022-11-18T12:13:43.377Z,953.85
2022-11-18T12:14:43.274Z,953.77
2022-11-18T12:15:43.235Z,953.77
2022-11-18T12:16:43.191Z,953.77
2022-11-18T12:17:43.139Z,953.71
2022-11-18T12:18:43.102Z,953.76
2022-11-18T12:19:43.064Z,953.76
2022-11-18T12:20:43.007Z,953.77
2022-11-18T12:21:42.961Z,953.81
2022-11-18T12:22:42.917Z,953.81
2022-11-18T12:23:42.875Z,953.78
2022-11-18T12:24:42.825Z,953.76
2022-11-18T12:25:42.816Z,953.80
2022-11-18T12:26:42.732Z,953.76
2022-11-18T12:27:42.690Z,953.79
2022-11-18T12:28:42.654Z,953.77
2022-11-18T12:29:42.601Z,953.81
2022-11-18T12:30:42.557Z,953.77
2022-11-18T12:31:42.554Z,953.81
2022-11-18T12:32:42.873Z,953.79
2022-11-18T12:33:42.416Z,953.78
2022-11-18T12:34:42.371Z,953.83
2022-11-18T12:35:42.329Z,953.81